Time;durP1;ratioP1;P1;durP2;ratioP2;P2;SDS_P1;SDS_P2;PMS_P1;PMS_P2;Temp;Humidity;BMP_temperature;BMP_pressure;BME280_temperature;BME280_humidity;BME280_pressure;Samples;Min_cycle;Max_cycle;Signal;HPM_P1;HPM_P2
2023/03/07 00:06:06;;;;;;;59.65;28.02;;;-0.50;99.90;;;;;;20911363;28;20040;-56
2023/03/07 00:16:11;;;;;;;52.40;25.63;;;-0.40;99.90;;;;;;20910100;28;20061;-56
2023/03/07 00:26:21;;;;;;;58.05;27.02;;;-0.30;99.90;;;;;;20910228;28;20055;-64
2023/03/07 00:36:23;;;;;;;61.90;28.67;;;0.00;99.90;;;;;;20908529;28;20036;-56
2023/03/07 00:46:25;;;;;;;55.42;26.65;;;0.00;99.90;;;;;;20907657;28;20047;-57
2023/03/07 00:56:27;;;;;;;43.70;21.38;;;-0.40;99.90;;;;;;20906426;28;20037;-66
2023/03/07 01:06:31;;;;;;;46.67;21.98;;;-0.50;99.90;;;;;;20905042;28;20025;-58
2023/03/07 01:16:35;;;;;;;32.22;17.67;;;-0.50;99.90;;;;;;20905486;28;20075;-59
2023/03/07 01:26:36;;;;;;;27.33;13.20;;;-0.30;99.90;;;;;;20904645;28;20440;-59
2023/03/07 01:36:38;;;;;;;19.60;10.13;;;0.20;99.90;;;;;;20904270;28;20029;-64
2023/03/07 01:46:47;;;;;;;21.85;10.68;;;1.20;99.90;;;;;;20885961;28;20426;-55
2023/03/07 01:56:51;;;;;;;17.70;9.55;;;1.00;99.90;;;;;;20904585;28;20033;-63
2023/03/07 02:06:52;;;;;;;15.85;9.20;;;1.10;99.90;;;;;;20901394;28;20029;-56
2023/03/07 02:16:55;;;;;;;28.17;14.15;;;1.40;99.90;;;;;;20902498;28;20371;-63
2023/03/07 02:26:58;;;;;;;45.17;22.10;;;1.40;99.90;;;;;;20900353;28;20021;-54
2023/03/07 02:37:20;;;;;;;36.40;18.67;;;0.90;99.90;;;;;;20884928;28;20033;-64
2023/03/07 02:47:24;;;;;;;36.85;16.48;;;0.50;99.90;;;;;;20901459;28;20566;-63
2023/03/07 02:57:26;;;;;;;45.75;21.40;;;0.20;99.90;;;;;;20899489;28;20048;-64
2023/03/07 03:07:28;;;;;;;50.10;25.02;;;-0.10;99.90;;;;;;20899218;28;20086;-56
2023/03/07 03:17:29;;;;;;;74.68;32.75;;;-0.40;99.90;;;;;;20908554;28;20494;-55
2023/03/07 03:27:32;;;;;;;62.05;27.95;;;-0.10;99.90;;;;;;20912498;28;20083;-57
2023/03/07 03:37:34;;;;;;;70.00;30.73;;;0.00;99.90;;;;;;20911889;28;20036;-63
2023/03/07 03:47:38;;;;;;;57.08;27.80;;;0.50;99.90;;;;;;20911544;28;20029;-63
2023/03/07 03:57:40;;;;;;;47.17;23.30;;;1.00;99.90;;;;;;20910428;28;20025;-62
2023/03/07 04:07:42;;;;;;;37.30;18.08;;;1.50;99.90;;;;;;20911875;28;20033;-55
2023/03/07 04:17:43;;;;;;;32.03;17.58;;;2.00;99.90;;;;;;20910032;28;20049;-63
2023/03/07 04:27:45;;;;;;;29.67;16.50;;;2.10;99.90;;;;;;20908111;28;20033;-57
2023/03/07 04:37:49;;;;;;;25.25;12.98;;;2.00;99.90;;;;;;20892043;28;20369;-56
2023/03/07 04:47:51;;;;;;;22.05;11.73;;;2.10;99.90;;;;;;20907907;28;20063;-63
2023/03/07 04:57:53;;;;;;;24.17;12.82;;;1.90;99.90;;;;;;20906910;28;20025;-64
2023/03/07 05:07:54;;;;;;;23.95;12.38;;;1.90;99.90;;;;;;20905019;28;20083;-63
2023/03/07 05:17:56;;;;;;;19.70;10.25;;;1.90;99.90;;;;;;20904433;28;20052;-56
2023/03/07 05:27:58;;;;;;;19.80;10.38;;;1.60;99.90;;;;;;20904774;28;20060;-56
2023/03/07 05:37:59;;;;;;;19.75;9.85;;;1.60;99.90;;;;;;20903699;28;20037;-57
2023/03/07 05:48:02;;;;;;;17.98;8.93;;;1.70;99.90;;;;;;20902751;28;20029;-57
2023/03/07 05:58:08;;;;;;;19.33;8.93;;;1.60;99.90;;;;;;20901892;28;20079;-55
2023/03/07 06:08:10;;;;;;;15.80;8.73;;;1.50;99.90;;;;;;20902802;28;20036;-57
2023/03/07 06:18:13;;;;;;;17.23;8.88;;;1.60;99.90;;;;;;20900907;28;20033;-63
2023/03/07 06:28:15;;;;;;;16.15;7.60;;;1.90;99.90;;;;;;20903111;28;20452;-57
2023/03/07 06:38:17;;;;;;;15.10;8.70;;;2.00;99.90;;;;;;20900229;28;20037;-56
2023/03/07 06:48:20;;;;;;;14.15;7.22;;;2.20;99.90;;;;;;20902611;28;20044;-56
2023/03/07 06:58:21;;;;;;;15.93;7.75;;;2.50;99.90;;;;;;20915106;28;20059;-63
2023/03/07 07:08:23;;;;;;;12.93;7.25;;;2.80;99.90;;;;;;20915896;28;20440;-54
2023/03/07 07:18:25;;;;;;;14.27;8.20;;;3.00;99.90;;;;;;20913954;28;20083;-56
2023/03/07 07:28:28;;;;;;;15.65;8.40;;;3.10;99.90;;;;;;20914122;28;20437;-57
2023/03/07 07:38:29;;;;;;;15.23;7.45;;;3.60;99.90;;;;;;20913559;28;20120;-56
2023/03/07 07:48:32;;;;;;;16.45;8.05;;;4.10;99.90;;;;;;20913008;28;20102;-54
2023/03/07 07:58:34;;;;;;;16.73;7.90;;;4.90;99.90;;;;;;20893648;28;20402;-57
2023/03/07 08:08:38;;;;;;;17.50;9.60;;;5.90;99.90;;;;;;20894661;28;20053;-63
2023/03/07 08:18:41;;;;;;;17.67;9.77;;;6.20;99.90;;;;;;20908607;28;20098;-54
2023/03/07 08:28:42;;;;;;;16.45;9.13;;;6.20;99.90;;;;;;20909416;28;20389;-57
2023/03/07 08:38:51;;;;;;;17.90;10.00;;;5.80;99.90;;;;;;20908479;28;20029;-56
2023/03/07 08:48:53;;;;;;;19.27;10.15;;;5.80;99.90;;;;;;20906544;28;20036;-56
2023/03/07 08:58:54;;;;;;;19.35;9.82;;;5.60;99.90;;;;;;20907140;28;20032;-63
2023/03/07 09:08:56;;;;;;;20.27;10.00;;;5.30;99.90;;;;;;20904971;28;20037;-57
2023/03/07 09:18:58;;;;;;;18.75;10.00;;;5.20;99.90;;;;;;20904943;28;20487;-57
2023/03/07 09:28:59;;;;;;;17.77;9.48;;;5.40;99.90;;;;;;20904758;28;20037;-62
2023/03/07 09:39:01;;;;;;;23.73;13.07;;;5.90;99.90;;;;;;20902869;28;20036;-62
2023/03/07 09:49:02;;;;;;;24.17;13.45;;;6.30;99.90;;;;;;20903812;28;20029;-53
2023/03/07 09:59:12;;;;;;;32.55;16.60;;;6.30;99.90;;;;;;20903100;28;20033;-55
2023/03/07 10:09:20;;;;;;;22.52;11.88;;;6.20;99.90;;;;;;20901333;28;20028;-53
2023/03/07 10:19:47;;;;;;;31.95;16.95;;;6.20;99.90;;;;;;20902209;28;20401;-62
2023/03/07 10:29:51;;;;;;;21.38;11.52;;;6.00;99.90;;;;;;20899220;28;20067;-63
2023/03/07 10:39:55;;;;;;;26.85;15.20;;;5.30;99.90;;;;;;20917827;28;20565;-62
2023/03/07 10:50:07;;;;;;;28.27;14.68;;;5.70;99.90;;;;;;20917467;28;20029;-56
2023/03/07 11:00:16;;;;;;;30.80;15.90;;;5.70;99.90;;;;;;20915086;28;20165;-63
2023/03/07 11:10:44;;;;;;;29.95;17.60;;;6.20;99.90;;;;;;20915403;28;20082;-52
2023/03/07 11:20:48;;;;;;;29.73;18.48;;;6.90;99.90;;;;;;20914891;28;20052;-62
2023/03/07 11:31:06;;;;;;;32.00;18.27;;;8.00;99.90;;;;;;20914264;28;20037;-63
2023/03/07 11:41:28;;;;;;;26.38;17.60;;;8.10;99.90;;;;;;20912794;28;20041;-53
2023/03/07 11:51:52;;;;;;;31.25;17.70;;;8.20;99.90;;;;;;20912476;28;20037;-63
2023/03/07 12:02:05;;;;;;;19.50;11.50;;;8.40;99.90;;;;;;20906279;28;20044;-54
2023/03/07 12:12:38;;;;;;;24.50;14.50;;;9.60;99.90;;;;;;20909983;28;20056;-55
2023/03/07 12:23:11;;;;;;;29.27;15.77;;;8.50;99.90;;;;;;20910054;28;20040;-63
2023/03/07 12:33:40;;;;;;;22.23;14.32;;;7.80;99.90;;;;;;20906892;28;20449;-62
2023/03/07 12:43:52;;;;;;;21.55;11.50;;;7.60;99.90;;;;;;20901206;28;20482;-63
2023/03/07 12:54:33;;;;;;;21.77;11.00;;;7.40;99.90;;;;;;20907903;28;20040;-63
2023/03/07 13:04:41;;;;;;;18.50;9.63;;;6.60;99.90;;;;;;20898042;28;20049;-52
2023/03/07 13:14:55;;;;;;;18.90;10.63;;;7.20;99.90;;;;;;20977198;28;20913;-56
2023/03/07 13:25:26;;;;;;;15.70;8.80;;;7.30;99.90;;;;;;20973761;28;20033;-54
2023/03/07 13:35:27;;;;;;;15.00;9.60;;;7.00;99.90;;;;;;20973042;28;20136;-56
2023/03/07 13:45:38;;;;;;;14.40;7.57;;;6.80;99.90;;;;;;20972312;28;20033;-55
2023/03/07 13:55:49;;;;;;;19.10;7.83;;;7.00;99.90;;;;;;20971619;28;20032;-62
2023/03/07 14:05:51;;;;;;;16.00;8.07;;;6.50;99.90;;;;;;20971389;28;20337;-55
2023/03/07 14:17:03;;;;;;;18.17;8.57;;;6.50;99.90;;;;;;20969852;28;20032;-62
2023/03/07 14:27:12;;;;;;;16.77;8.18;;;6.30;99.90;;;;;;20908968;28;20402;-61
2023/03/07 14:37:25;;;;;;;18.65;7.55;;;7.00;99.90;;;;;;20914485;28;20024;-55
2023/03/07 14:47:44;;;;;;;19.25;9.10;;;6.80;99.90;;;;;;20913756;28;20095;-56
2023/03/07 14:57:51;;;;;;;20.92;9.80;;;6.50;99.90;;;;;;20912855;28;20449;-55
2023/03/07 15:07:53;;;;;;;19.88;9.07;;;5.90;99.90;;;;;;20911735;28;20452;-62
2023/03/07 15:18:12;;;;;;;17.23;8.27;;;5.70;99.90;;;;;;20911603;28;20041;-63
2023/03/07 15:28:19;;;;;;;22.92;9.68;;;5.80;99.90;;;;;;20909909;28;20033;-63
2023/03/07 15:38:24;;;;;;;21.30;10.02;;;5.80;99.90;;;;;;20909074;28;20394;-62
2023/03/07 15:48:51;;;;;;;17.27;9.02;;;5.50;99.90;;;;;;20908887;28;20130;-63
2023/03/07 15:59:08;;;;;;;20.42;9.48;;;5.10;99.90;;;;;;20906794;28;20079;-55
2023/03/07 16:09:16;;;;;;;20.67;9.60;;;4.80;99.90;;;;;;20905558;28;20375;-63
2023/03/07 16:19:17;;;;;;;21.45;9.88;;;4.80;99.90;;;;;;20906693;28;20128;-62
2023/03/07 16:29:21;;;;;;;18.13;9.95;;;4.70;99.90;;;;;;20905402;28;20067;-63
2023/03/07 16:39:23;;;;;;;20.63;9.68;;;4.50;99.90;;;;;;20904642;28;20079;-55
2023/03/07 16:49:25;;;;;;;22.17;9.82;;;4.30;99.90;;;;;;20904425;28;20040;-55
2023/03/07 16:59:33;;;;;;;24.73;11.45;;;4.10;99.90;;;;;;20903770;28;20550;-63
2023/03/07 17:09:35;;;;;;;20.63;10.40;;;4.00;99.90;;;;;;20903277;28;20095;-54
2023/03/07 17:19:36;;;;;;;27.20;11.18;;;3.80;99.90;;;;;;20903245;28;20055;-56
2023/03/07 17:29:46;;;;;;;26.45;12.15;;;3.80;99.90;;;;;;20902594;28;20040;-55
2023/03/07 17:39:48;;;;;;;20.48;10.88;;;3.70;99.90;;;;;;20902112;28;20033;-56
2023/03/07 17:49:49;;;;;;;25.08;12.18;;;3.70;99.90;;;;;;20900708;28;20052;-56
2023/03/07 17:59:51;;;;;;;26.45;13.30;;;3.60;99.90;;;;;;20914208;28;20662;-56
2023/03/07 18:09:53;;;;;;;27.95;13.00;;;3.60;99.90;;;;;;20914715;28;20087;-56
2023/03/07 18:19:54;;;;;;;25.92;13.77;;;3.50;99.90;;;;;;20916185;28;20037;-56
2023/03/07 18:29:56;;;;;;;28.13;14.25;;;3.50;99.90;;;;;;20914864;28;20095;-55
2023/03/07 18:39:58;;;;;;;29.33;13.68;;;3.40;99.90;;;;;;20914084;28;20482;-57
2023/03/07 18:49:59;;;;;;;23.80;12.57;;;3.40;99.90;;;;;;20913680;28;20029;-63
2023/03/07 19:00:01;;;;;;;22.98;11.95;;;3.30;99.90;;;;;;20913700;28;20029;-56
2023/03/07 19:10:04;;;;;;;20.58;11.73;;;3.20;99.90;;;;;;20911382;28;20106;-56
2023/03/07 19:20:06;;;;;;;21.88;11.60;;;3.10;99.90;;;;;;20910079;28;20104;-62
2023/03/07 19:30:10;;;;;;;23.73;12.43;;;3.10;99.90;;;;;;20910020;28;20040;-63
2023/03/07 19:40:12;;;;;;;23.08;12.95;;;3.00;99.90;;;;;;20909299;28;20040;-56
2023/03/07 19:50:14;;;;;;;26.77;12.00;;;2.80;99.90;;;;;;20908839;28;20029;-56
2023/03/07 20:00:15;;;;;;;29.17;14.25;;;2.60;99.90;;;;;;20908948;28;20351;-63
2023/03/07 20:10:17;;;;;;;25.95;14.27;;;2.70;99.90;;;;;;20906607;28;20071;-63
2023/03/07 20:20:19;;;;;;;25.10;14.75;;;2.90;99.90;;;;;;20905947;28;20068;-56
2023/03/07 20:30:21;;;;;;;28.05;14.60;;;3.00;99.90;;;;;;20905537;28;20048;-56
2023/03/07 20:40:22;;;;;;;27.77;14.13;;;3.20;99.90;;;;;;20904673;28;20044;-63
2023/03/07 20:50:24;;;;;;;29.45;14.65;;;3.30;99.90;;;;;;20904697;28;20033;-55
2023/03/07 21:00:26;;;;;;;29.83;14.90;;;3.20;99.90;;;;;;20903671;28;20041;-55
2023/03/07 21:10:28;;;;;;;33.47;17.10;;;2.80;99.90;;;;;;20902988;28;20083;-56
2023/03/07 21:20:30;;;;;;;27.85;14.88;;;2.70;99.90;;;;;;20903356;28;20025;-62
2023/03/07 21:30:32;;;;;;;26.42;15.20;;;2.20;99.90;;;;;;20908950;28;20029;-59
2023/03/07 21:40:34;;;;;;;29.65;15.23;;;1.70;99.90;;;;;;20918851;28;20114;-58
2023/03/07 21:50:40;;;;;;;34.10;15.10;;;1.30;99.90;;;;;;20918514;28;20087;-63
2023/03/07 22:00:42;;;;;;;31.52;16.08;;;0.90;99.90;;;;;;20917178;28;20091;-65
2023/03/07 22:10:44;;;;;;;30.23;14.65;;;0.70;99.90;;;;;;20916236;28;20041;-66
2023/03/07 22:20:46;;;;;;;28.17;12.68;;;0.60;99.90;;;;;;20915708;28;20296;-58
2023/03/07 22:30:48;;;;;;;13.77;7.03;;;0.70;99.90;;;;;;20915349;28;20393;-58
2023/03/07 22:40:50;;;;;;;20.67;9.15;;;2.10;99.90;;;;;;20912343;28;20037;-56
2023/03/07 22:50:52;;;;;;;18.40;9.30;;;2.20;99.90;;;;;;20913327;28;20037;-66
2023/03/07 23:00:53;;;;;;;17.50;9.18;;;2.00;99.90;;;;;;20912768;28;20037;-58
2023/03/07 23:11:03;;;;;;;18.92;9.45;;;1.70;99.90;;;;;;20911328;28;20040;-56
2023/03/07 23:21:07;;;;;;;17.00;9.15;;;1.50;99.90;;;;;;20911064;28;20037;-55
2023/03/07 23:31:20;;;;;;;15.82;9.38;;;1.60;99.90;;;;;;20910386;28;20029;-63
2023/03/07 23:41:22;;;;;;;19.85;9.60;;;1.80;99.90;;;;;;20909542;28;20037;-55
2023/03/07 23:51:24;;;;;;;16.00;8.20;;;1.90;99.90;;;;;;20907727;28;20041;-59
